Time;durP1;ratioP1;P1;durP2;ratioP2;P2;SDS_P1;SDS_P2;PMS_P1;PMS_P2;Temp;Humidity;BMP_temperature;BMP_pressure;BME280_temperature;BME280_humidity;BME280_pressure;Samples;Min_cycle;Max_cycle;Signal;HPM_P1;HPM_P2
2024/03/19 00:09:03;;;;;;;0.00;0.00;;;4.00;99.90;;;;;;20904260;28;20086;-40
2024/03/19 00:19:05;;;;;;;0.10;0.00;;;4.30;99.90;;;;;;20868119;28;20028;-39
2024/03/19 00:29:07;;;;;;;0.00;0.00;;;4.50;99.90;;;;;;20890467;28;20090;-40
2024/03/19 00:39:12;;;;;;;0.15;0.00;;;4.90;99.90;;;;;;20861338;28;20492;-39
2024/03/19 00:49:14;;;;;;;0.03;0.00;;;4.90;99.90;;;;;;20821236;28;20033;-40
2024/03/19 00:59:16;;;;;;;0.10;0.00;;;5.00;99.90;;;;;;20814996;28;20042;-42
2024/03/19 01:09:18;;;;;;;0.00;0.00;;;5.10;99.90;;;;;;20816914;28;20056;-39
2024/03/19 01:19:23;;;;;;;0.00;0.00;;;5.30;99.90;;;;;;20817584;28;20033;-39
2024/03/19 01:29:25;;;;;;;0.22;0.00;;;4.90;99.90;;;;;;20835019;28;20029;-39
2024/03/19 01:39:27;;;;;;;0.00;0.00;;;4.30;99.90;;;;;;20880715;28;20496;-39
2024/03/19 01:49:29;;;;;;;0.00;0.00;;;4.10;99.90;;;;;;20900109;28;20037;-39
2024/03/19 01:59:31;;;;;;;0.90;0.00;;;4.10;99.90;;;;;;20883729;28;20034;-39
2024/03/19 02:09:33;;;;;;;0.00;0.00;;;3.90;99.90;;;;;;20857974;28;20095;-39
2024/03/19 02:19:35;;;;;;;0.10;0.00;;;3.80;99.90;;;;;;20896372;28;20067;-40
2024/03/19 02:29:37;;;;;;;0.20;0.00;;;3.90;99.90;;;;;;20881319;28;20045;-39
2024/03/19 02:39:39;;;;;;;0.10;0.00;;;4.20;99.90;;;;;;20868550;28;20111;-39
2024/03/19 02:49:42;;;;;;;0.00;0.00;;;4.70;99.90;;;;;;20840920;28;20025;-39
2024/03/19 02:59:44;;;;;;;0.00;0.00;;;4.90;99.90;;;;;;20892661;28;20834;-40
2024/03/19 03:09:46;;;;;;;1.20;0.00;;;5.00;99.90;;;;;;20909474;28;20036;-40
2024/03/19 03:19:48;;;;;;;0.00;0.00;;;5.20;99.90;;;;;;20908767;28;20080;-40
2024/03/19 03:29:50;;;;;;;0.00;0.00;;;5.20;99.90;;;;;;20869709;28;20033;-39
2024/03/19 03:39:52;;;;;;;0.43;0.05;;;5.50;99.90;;;;;;20788919;28;20037;-43
2024/03/19 03:49:54;;;;;;;0.32;0.00;;;5.50;99.90;;;;;;20774102;28;20037;-40
2024/03/19 03:59:56;;;;;;;3.33;0.10;;;5.40;99.90;;;;;;20823884;28;20021;-40
2024/03/19 04:09:57;;;;;;;0.10;0.00;;;5.40;99.90;;;;;;20823271;28;20053;-40
2024/03/19 04:20:00;;;;;;;0.15;0.00;;;5.40;99.90;;;;;;20821949;28;20034;-39
2024/03/19 04:30:03;;;;;;;0.43;0.05;;;5.40;99.90;;;;;;20822435;28;20049;-39
2024/03/19 04:40:07;;;;;;;0.20;0.00;;;5.20;99.90;;;;;;20822226;28;20049;-39
2024/03/19 04:50:09;;;;;;;0.45;0.00;;;5.30;99.90;;;;;;20848412;28;20033;-40
2024/03/19 05:00:16;;;;;;;0.22;0.10;;;5.10;99.90;;;;;;20885340;28;20045;-40
2024/03/19 05:10:18;;;;;;;0.05;0.00;;;5.20;99.90;;;;;;20902946;28;20044;-40
2024/03/19 05:20:20;;;;;;;0.00;0.00;;;5.40;99.90;;;;;;20914466;28;20037;-40
2024/03/19 05:30:26;;;;;;;0.00;0.00;;;5.10;99.90;;;;;;20917136;28;20049;-39
2024/03/19 05:40:27;;;;;;;0.00;0.00;;;5.10;99.90;;;;;;20726995;28;20038;-39
2024/03/19 05:50:31;;;;;;;0.05;0.00;;;5.10;99.90;;;;;;20741921;28;20485;-40
2024/03/19 06:00:33;;;;;;;0.00;0.00;;;5.30;99.90;;;;;;20741653;28;20096;-39
2024/03/19 06:10:35;;;;;;;0.10;0.00;;;5.30;99.90;;;;;;20818383;28;20045;-39
2024/03/19 06:20:37;;;;;;;0.20;0.00;;;5.40;99.90;;;;;;20840222;28;20032;-39
2024/03/19 06:30:39;;;;;;;0.00;0.00;;;5.20;99.90;;;;;;20876032;28;20125;-40
2024/03/19 06:40:40;;;;;;;0.17;0.00;;;5.40;99.90;;;;;;20810206;28;20052;-40
2024/03/19 06:50:43;;;;;;;0.57;0.00;;;6.00;99.90;;;;;;20828435;28;20080;-39
2024/03/19 07:00:47;;;;;;;0.00;0.00;;;6.00;99.90;;;;;;20828090;28;20487;-40
2024/03/19 07:10:49;;;;;;;0.00;0.00;;;6.30;99.90;;;;;;20809416;28;20099;-41
2024/03/19 07:20:55;;;;;;;0.40;0.00;;;6.80;99.90;;;;;;20826514;28;20053;-43
2024/03/19 07:30:57;;;;;;;0.00;0.00;;;7.70;99.90;;;;;;20835297;28;20133;-42
2024/03/19 07:40:59;;;;;;;0.20;0.00;;;8.40;99.40;;;;;;20903957;28;20028;-40
2024/03/19 07:51:01;;;;;;;0.00;0.00;;;9.00;96.70;;;;;;20860233;28;20033;-40
2024/03/19 08:01:06;;;;;;;0.35;0.10;;;9.50;95.60;;;;;;20818103;28;20394;-41
2024/03/19 08:11:10;;;;;;;0.10;0.10;;;9.90;94.10;;;;;;20837430;28;20050;-43
2024/03/19 08:21:14;;;;;;;0.28;0.08;;;10.20;93.30;;;;;;20842631;28;20033;-40
2024/03/19 08:31:15;;;;;;;0.35;0.03;;;10.70;94.30;;;;;;20846296;28;20550;-40
2024/03/19 08:41:18;;;;;;;0.10;0.10;;;10.60;94.50;;;;;;20831732;28;20050;-41
2024/03/19 08:51:19;;;;;;;0.65;0.00;;;10.90;94.40;;;;;;20835223;28;20038;-40
2024/03/19 09:01:21;;;;;;;0.10;0.10;;;11.00;92.70;;;;;;20772408;28;20440;-41
2024/03/19 09:11:23;;;;;;;0.38;0.10;;;11.40;95.10;;;;;;20763598;28;20050;-42
2024/03/19 09:21:25;;;;;;;0.10;0.00;;;11.40;91.10;;;;;;20810660;28;20041;-42
2024/03/19 09:31:27;;;;;;;0.35;0.05;;;11.70;92.30;;;;;;20810320;28;20038;-44
2024/03/19 09:41:29;;;;;;;0.10;0.00;;;12.20;90.80;;;;;;20774305;28;20033;-39
2024/03/19 09:51:32;;;;;;;0.08;0.00;;;12.10;88.70;;;;;;20769438;28;20037;-40
2024/03/19 10:01:34;;;;;;;2.67;0.28;;;12.30;90.80;;;;;;20801482;28;20072;-44
2024/03/19 10:11:38;;;;;;;0.38;0.25;;;13.30;97.20;;;;;;20805485;28;20047;-43
2024/03/19 10:21:43;;;;;;;1.38;0.20;;;14.40;94.30;;;;;;20773496;28;20037;-43
2024/03/19 10:31:49;;;;;;;0.80;0.40;;;14.30;94.50;;;;;;20780172;28;20086;-45
2024/03/19 10:41:51;;;;;;;1.23;0.85;;;14.70;95.10;;;;;;20847870;28;20037;-44
2024/03/19 10:52:16;;;;;;;2.47;1.10;;;15.10;96.40;;;;;;20870084;28;20040;-43
2024/03/19 11:02:18;;;;;;;2.60;1.45;;;15.40;97.30;;;;;;20892801;28;20083;-42
2024/03/19 11:12:24;;;;;;;4.80;3.20;;;15.40;97.00;;;;;;20854938;28;20025;-44
2024/03/19 11:22:26;;;;;;;14.15;9.23;;;15.70;98.10;;;;;;20852731;28;20040;-44
2024/03/19 11:32:28;;;;;;;20.90;12.70;;;15.60;98.80;;;;;;20890354;28;20045;-43
2024/03/19 11:42:30;;;;;;;20.88;14.23;;;15.50;99.90;;;;;;20889686;28;20037;-44
2024/03/19 11:52:35;;;;;;;25.20;17.95;;;15.30;99.90;;;;;;20898920;28;20898;-43
2024/03/19 12:02:39;;;;;;;27.75;17.48;;;14.00;99.90;;;;;;20904021;28;20036;-42
2024/03/19 12:12:41;;;;;;;24.80;16.75;;;12.40;99.90;;;;;;20903306;28;20074;-43
2024/03/19 12:23:03;;;;;;;28.23;17.98;;;11.90;99.90;;;;;;20904271;28;20036;-42
2024/03/19 12:43:08;;;;;;;38.72;24.42;;;11.30;99.90;;;;;;20880081;28;20110;-43
2024/03/19 12:53:14;;;;;;;33.40;22.58;;;12.60;99.90;;;;;;20836044;28;20393;-43
2024/03/19 13:03:16;;;;;;;32.55;21.95;;;13.70;99.90;;;;;;20722527;28;20056;-44
2024/03/19 13:13:18;;;;;;;38.80;24.90;;;14.20;99.90;;;;;;20725642;28;20046;-41
2024/03/19 13:23:24;;;;;;;38.90;26.20;;;13.20;99.90;;;;;;20682965;28;20050;-43
2024/03/19 13:33:26;;;;;;;45.40;27.48;;;12.40;99.90;;;;;;20754741;28;20048;-41
2024/03/19 13:43:28;;;;;;;37.28;24.52;;;12.60;99.90;;;;;;20838473;28;20148;-42
2024/03/19 13:53:33;;;;;;;37.60;25.15;;;13.40;99.90;;;;;;20834562;28;20045;-43
2024/03/19 14:03:35;;;;;;;35.67;23.55;;;13.70;99.90;;;;;;20821333;28;20033;-43
2024/03/19 14:13:37;;;;;;;32.60;21.58;;;13.00;99.90;;;;;;20831299;28;20037;-44
2024/03/19 14:23:39;;;;;;;37.55;25.00;;;12.70;99.90;;;;;;20830326;28;20033;-42
2024/03/19 14:33:41;;;;;;;33.33;23.25;;;12.50;99.90;;;;;;20851625;28;20087;-43
2024/03/19 14:43:45;;;;;;;31.10;20.83;;;12.90;99.90;;;;;;20907688;28;20576;-43
2024/03/19 14:53:47;;;;;;;37.25;24.50;;;13.60;99.90;;;;;;20910446;28;20041;-42
2024/03/19 15:03:49;;;;;;;33.15;23.67;;;13.30;99.90;;;;;;20870618;28;20028;-43
2024/03/19 15:13:51;;;;;;;37.42;25.55;;;12.80;99.90;;;;;;20838027;28;20029;-41
2024/03/19 15:23:53;;;;;;;37.38;25.30;;;11.80;99.90;;;;;;20860097;28;20033;-43
2024/03/19 15:33:55;;;;;;;36.42;24.40;;;11.70;99.90;;;;;;20908617;28;20045;-41
2024/03/19 15:43:57;;;;;;;49.70;30.20;;;10.80;99.90;;;;;;20908132;28;20048;-45
2024/03/19 15:53:59;;;;;;;44.90;27.65;;;10.50;99.90;;;;;;20888667;28;20029;-41
2024/03/19 16:04:01;;;;;;;44.75;27.83;;;10.40;99.90;;;;;;20904015;28;20032;-42
2024/03/19 16:14:06;;;;;;;46.30;28.73;;;10.10;99.90;;;;;;20903373;28;20037;-41
2024/03/19 16:24:08;;;;;;;47.72;28.83;;;9.60;99.90;;;;;;20868630;28;20025;-40
2024/03/19 16:34:10;;;;;;;41.40;26.13;;;9.10;99.90;;;;;;20896608;28;20033;-40
2024/03/19 16:44:12;;;;;;;42.53;26.90;;;8.50;99.90;;;;;;20886358;28;20084;-42
2024/03/19 16:54:14;;;;;;;54.78;29.88;;;8.40;99.90;;;;;;20899861;28;20044;-40
2024/03/19 17:04:17;;;;;;;49.75;27.77;;;8.20;99.90;;;;;;20903246;28;20053;-39
2024/03/19 17:14:20;;;;;;;52.50;27.75;;;7.40;99.90;;;;;;20840606;28;20029;-39
2024/03/19 17:24:22;;;;;;;50.53;26.08;;;6.60;99.90;;;;;;20877829;28;20029;-39
2024/03/19 17:34:24;;;;;;;32.10;17.05;;;6.00;99.90;;;;;;20915796;28;20040;-40
2024/03/19 17:44:26;;;;;;;14.32;7.15;;;5.40;99.90;;;;;;20915876;28;20033;-40
2024/03/19 17:54:28;;;;;;;7.88;4.80;;;5.10;99.90;;;;;;20840519;28;20043;-39
2024/03/19 18:04:30;;;;;;;4.90;2.45;;;4.60;99.90;;;;;;20833283;28;20473;-39
2024/03/19 18:14:32;;;;;;;4.38;2.42;;;4.40;99.90;;;;;;20832220;28;20113;-39
2024/03/19 18:24:35;;;;;;;5.05;2.72;;;4.20;99.90;;;;;;20812888;28;20496;-40
2024/03/19 18:34:39;;;;;;;5.25;2.70;;;4.00;99.90;;;;;;20884670;28;20075;-39
2024/03/19 18:44:42;;;;;;;4.65;2.38;;;4.00;99.90;;;;;;20895027;28;20083;-39
2024/03/19 18:54:44;;;;;;;3.58;2.10;;;3.90;99.90;;;;;;20879331;28;20044;-39
2024/03/19 19:04:46;;;;;;;8.45;3.88;;;3.80;99.90;;;;;;20910376;28;20848;-39
2024/03/19 19:14:48;;;;;;;12.05;4.20;;;3.80;99.90;;;;;;20835398;28;20037;-39
2024/03/19 19:24:50;;;;;;;9.50;4.50;;;3.80;99.90;;;;;;20872341;28;20033;-39
2024/03/19 19:34:52;;;;;;;4.18;2.28;;;3.70;99.90;;;;;;20902720;28;20477;-39
2024/03/19 19:44:55;;;;;;;13.63;6.30;;;3.60;99.90;;;;;;20826229;28;20447;-39
2024/03/19 19:54:57;;;;;;;13.20;6.68;;;3.60;99.90;;;;;;20859914;28;20049;-40
2024/03/19 20:04:59;;;;;;;17.67;8.13;;;3.50;99.90;;;;;;20859655;28;20545;-40
2024/03/19 20:15:01;;;;;;;13.82;7.20;;;3.50;99.90;;;;;;20905821;28;20036;-40
2024/03/19 20:25:04;;;;;;;17.20;7.78;;;3.40;99.90;;;;;;20887973;28;20036;-40
2024/03/19 20:35:07;;;;;;;21.30;11.80;;;3.30;99.90;;;;;;20871402;28;20106;-41
2024/03/19 20:45:10;;;;;;;30.35;15.10;;;3.40;99.90;;;;;;20888934;28;20033;-40
2024/03/19 20:55:12;;;;;;;26.38;13.65;;;3.30;99.90;;;;;;20920358;28;20059;-40
2024/03/19 21:05:15;;;;;;;24.60;12.95;;;3.40;99.90;;;;;;20886626;28;20063;-40
2024/03/19 21:15:18;;;;;;;20.38;10.68;;;3.40;99.90;;;;;;20919047;28;20033;-39
2024/03/19 21:25:22;;;;;;;20.73;10.55;;;3.30;99.90;;;;;;20867213;28;20040;-39
2024/03/19 21:35:25;;;;;;;24.48;12.50;;;3.20;99.90;;;;;;20914823;28;20063;-40
2024/03/19 21:45:29;;;;;;;24.80;13.07;;;3.30;99.90;;;;;;20905500;28;20488;-40
2024/03/19 21:55:31;;;;;;;32.47;17.38;;;3.20;99.90;;;;;;20828772;28;20038;-39
2024/03/19 22:05:33;;;;;;;30.48;15.00;;;3.10;99.90;;;;;;20811052;28;20030;-39
2024/03/19 22:15:35;;;;;;;32.40;16.45;;;3.10;99.90;;;;;;20827852;28;20369;-40
2024/03/19 22:25:37;;;;;;;34.10;16.38;;;3.00;99.90;;;;;;20827163;28;20041;-39
2024/03/19 22:35:40;;;;;;;35.22;17.48;;;3.00;99.90;;;;;;20779810;28;1449287;-39
2024/03/19 22:45:42;;;;;;;32.85;17.25;;;3.40;99.90;;;;;;20827521;28;20075;-40
2024/03/19 22:55:44;;;;;;;33.45;17.75;;;4.00;99.90;;;;;;20799689;28;20033;-40
2024/03/19 23:05:46;;;;;;;28.98;15.65;;;4.30;99.90;;;;;;20827485;28;20033;-40
2024/03/19 23:15:47;;;;;;;42.90;22.20;;;4.50;99.90;;;;;;20727686;28;20456;-45
2024/03/19 23:25:49;;;;;;;38.25;19.88;;;4.90;99.90;;;;;;20726474;28;20489;-39
2024/03/19 23:35:51;;;;;;;40.20;20.17;;;4.90;99.90;;;;;;20755692;28;20087;-40
2024/03/19 23:45:55;;;;;;;43.28;21.88;;;5.00;99.90;;;;;;20825089;28;20033;-40
2024/03/19 23:55:57;;;;;;;37.40;20.38;;;5.10;99.90;;;;;;20824654;28;20092;-39
